Time;durP1;ratioP1;P1;durP2;ratioP2;P2;SDS_P1;SDS_P2;PMS_P1;PMS_P2;Temp;Humidity;BMP_temperature;BMP_pressure;BME280_temperature;BME280_humidity;BME280_pressure;Samples;Min_cycle;Max_cycle;Signal;HPM_P1;HPM_P2
2021/12/22 00:01:40;;;;;;;21.38;18.45;;;-3.10;99.90;;;;;;4970290;28;20056;-60
2021/12/22 00:04:06;;;;;;;19.90;17.63;;;-3.10;99.90;;;;;;4971031;28;20049;-60
2021/12/22 00:06:34;;;;;;;22.65;18.20;;;-3.10;99.90;;;;;;4968332;28;20773;-52
2021/12/22 00:09:03;;;;;;;20.92;18.73;;;-3.20;99.90;;;;;;4968909;28;20527;-58
2021/12/22 00:11:29;;;;;;;21.50;18.25;;;-3.10;99.90;;;;;;4968673;28;20042;-59
2021/12/22 00:13:56;;;;;;;24.73;21.17;;;-3.20;99.90;;;;;;4969413;28;20047;-59
2021/12/22 00:16:22;;;;;;;21.45;18.27;;;-3.10;99.90;;;;;;4971749;28;20043;-59
2021/12/22 00:18:48;;;;;;;24.13;18.67;;;-3.20;99.90;;;;;;4953830;28;20086;-59
2021/12/22 00:21:14;;;;;;;25.88;20.05;;;-3.20;99.90;;;;;;4969097;28;20082;-60
2021/12/22 00:23:40;;;;;;;21.33;17.85;;;-3.20;99.90;;;;;;4969267;28;20135;-61
2021/12/22 00:26:07;;;;;;;21.23;18.88;;;-3.10;99.90;;;;;;4937742;28;20422;-59
2021/12/22 00:28:33;;;;;;;23.65;17.90;;;-3.10;99.90;;;;;;4953843;28;20047;-59
2021/12/22 00:31:09;;;;;;;21.05;17.38;;;-3.20;99.90;;;;;;4970591;28;20046;-59
2021/12/22 00:33:44;;;;;;;24.17;20.27;;;-3.20;99.90;;;;;;4967669;28;20047;-55
2021/12/22 00:36:10;;;;;;;20.90;18.75;;;-3.20;99.90;;;;;;4983503;28;20042;-49
2021/12/22 00:38:36;;;;;;;19.75;17.63;;;-3.20;99.90;;;;;;4967110;28;20046;-59
2021/12/22 00:41:02;;;;;;;28.67;20.35;;;-3.20;99.90;;;;;;4971113;28;20047;-59
2021/12/22 00:43:28;;;;;;;23.85;18.77;;;-3.20;99.90;;;;;;4970092;28;20488;-52
2021/12/22 00:45:56;;;;;;;22.13;18.08;;;-3.20;99.90;;;;;;4968928;28;20058;-53
2021/12/22 00:48:23;;;;;;;18.08;16.08;;;-3.30;99.90;;;;;;4984376;28;20057;-56
2021/12/22 00:50:49;;;;;;;21.95;16.52;;;-3.30;99.90;;;;;;4970150;28;20494;-59
2021/12/22 00:53:15;;;;;;;20.98;16.73;;;-3.30;99.90;;;;;;4984656;28;20058;-52
2021/12/22 00:55:42;;;;;;;20.42;17.33;;;-3.30;99.90;;;;;;4968437;28;20366;-59
2021/12/22 00:58:08;;;;;;;20.45;16.35;;;-3.30;99.90;;;;;;4952964;28;20082;-59
2021/12/22 01:00:35;;;;;;;23.33;17.45;;;-3.30;99.90;;;;;;4968468;28;20054;-59
2021/12/22 01:03:04;;;;;;;20.77;17.98;;;-3.30;99.90;;;;;;4952973;28;20039;-59
2021/12/22 01:05:31;;;;;;;26.85;18.95;;;-3.30;99.90;;;;;;4984401;28;20083;-59
2021/12/22 01:07:58;;;;;;;21.58;18.40;;;-3.30;99.90;;;;;;4950224;28;20089;-50
2021/12/22 01:10:27;;;;;;;23.75;18.70;;;-3.30;99.90;;;;;;4965477;28;20057;-51
2021/12/22 01:12:56;;;;;;;22.88;17.83;;;-3.30;99.90;;;;;;4968141;28;20089;-50
2021/12/22 01:15:22;;;;;;;22.10;17.23;;;-3.40;99.90;;;;;;4969553;28;20494;-54
2021/12/22 01:17:57;;;;;;;23.75;16.45;;;-3.30;99.90;;;;;;4950223;28;20811;-52
2021/12/22 01:20:30;;;;;;;20.05;16.92;;;-3.20;99.90;;;;;;4967660;28;20078;-48
2021/12/22 01:23:03;;;;;;;20.10;17.27;;;-3.30;99.90;;;;;;4951902;28;20126;-53
2021/12/22 01:25:32;;;;;;;19.90;17.30;;;-3.40;99.90;;;;;;4952831;28;20418;-51
2021/12/22 01:27:58;;;;;;;22.30;16.38;;;-3.30;99.90;;;;;;4969113;28;20398;-50
2021/12/22 01:30:27;;;;;;;18.13;13.80;;;-3.40;99.90;;;;;;4969419;28;20053;-55
2021/12/22 01:32:57;;;;;;;21.00;16.13;;;-3.40;99.90;;;;;;4966038;28;20504;-53
2021/12/22 01:35:26;;;;;;;19.02;15.88;;;-3.40;99.90;;;;;;4967739;28;20580;-54
2021/12/22 01:37:53;;;;;;;23.92;17.23;;;-3.40;99.90;;;;;;4966753;28;20054;-53
2021/12/22 01:40:20;;;;;;;21.95;16.65;;;-3.40;99.90;;;;;;4950123;28;20917;-51
2021/12/22 01:42:48;;;;;;;20.40;17.40;;;-3.40;99.90;;;;;;4951856;28;20063;-50
2021/12/22 01:51:08;;;;;;;21.70;16.17;;;-3.50;99.90;;;;;;4969245;28;20189;-54
2021/12/22 01:53:40;;;;;;;23.02;17.42;;;-3.50;99.90;;;;;;4967861;28;20426;-54
2021/12/22 01:56:23;;;;;;;19.25;15.25;;;-3.50;99.90;;;;;;4968069;28;20117;-53
2021/12/22 01:58:53;;;;;;;21.23;17.70;;;-3.60;99.90;;;;;;4967587;28;20149;-52
2021/12/22 02:01:20;;;;;;;21.65;16.45;;;-3.50;99.90;;;;;;4950018;28;20120;-53
2021/12/22 02:03:48;;;;;;;26.00;18.75;;;-3.60;99.90;;;;;;4964779;28;20053;-55
2021/12/22 02:06:16;;;;;;;21.92;16.67;;;-3.60;99.90;;;;;;4948308;28;20050;-49
2021/12/22 02:08:44;;;;;;;24.08;17.35;;;-3.60;99.90;;;;;;4967435;28;20050;-51
2021/12/22 02:11:15;;;;;;;23.15;17.80;;;-3.60;99.90;;;;;;4950136;28;20053;-53
2021/12/22 02:13:45;;;;;;;21.73;17.48;;;-3.60;99.90;;;;;;4967751;28;20458;-54
2021/12/22 02:16:14;;;;;;;25.58;17.35;;;-3.60;99.90;;;;;;4950920;28;20102;-48
2021/12/22 02:18:49;;;;;;;18.63;15.73;;;-3.60;99.90;;;;;;4967145;28;20062;-59
2021/12/22 02:21:17;;;;;;;25.17;17.10;;;-3.70;99.90;;;;;;4965856;28;20070;-59
2021/12/22 02:23:43;;;;;;;21.05;17.13;;;-3.70;99.90;;;;;;4968795;28;20114;-59
2021/12/22 02:26:15;;;;;;;22.98;17.63;;;-3.70;99.90;;;;;;4966476;28;20058;-59
2021/12/22 02:28:46;;;;;;;26.48;19.50;;;-3.70;99.90;;;;;;4968089;28;20043;-59
2021/12/22 02:31:16;;;;;;;22.98;19.25;;;-3.70;99.90;;;;;;4970808;28;20078;-59
2021/12/22 02:33:46;;;;;;;28.98;20.33;;;-3.70;99.90;;;;;;4955413;28;20049;-59
2021/12/22 02:36:23;;;;;;;27.85;18.98;;;-3.70;99.90;;;;;;4970882;28;20101;-59
2021/12/22 02:38:55;;;;;;;27.15;19.23;;;-3.70;99.90;;;;;;4922788;28;20054;-53
2021/12/22 02:41:28;;;;;;;28.35;19.83;;;-3.70;99.90;;;;;;4972432;28;20045;-54
2021/12/22 02:43:56;;;;;;;29.92;19.55;;;-3.80;99.90;;;;;;4971916;28;20474;-54
2021/12/22 02:46:30;;;;;;;27.80;20.38;;;-3.80;99.90;;;;;;4971285;28;20086;-54
2021/12/22 02:48:58;;;;;;;27.40;19.20;;;-3.80;99.90;;;;;;4971487;28;20150;-54
2021/12/22 02:51:27;;;;;;;26.20;17.90;;;-3.80;99.90;;;;;;4972414;28;20121;-53
2021/12/22 02:57:17;;;;;;;26.85;19.05;;;-3.90;99.90;;;;;;4971882;28;20055;-55
2021/12/22 03:02:32;;;;;;;25.75;19.08;;;-3.90;99.90;;;;;;4971370;28;20417;-53
2021/12/22 03:04:58;;;;;;;28.13;19.77;;;-3.90;99.90;;;;;;4951709;29;20051;-54
2021/12/22 03:07:29;;;;;;;28.70;19.27;;;-3.90;99.90;;;;;;4966682;28;20105;-59
2021/12/22 03:10:00;;;;;;;28.25;19.13;;;-3.80;99.90;;;;;;4960829;28;20078;-58
2021/12/22 03:12:30;;;;;;;27.80;18.53;;;-3.80;99.90;;;;;;4972154;28;20109;-52
2021/12/22 03:14:56;;;;;;;25.95;18.90;;;-3.90;99.90;;;;;;4970052;28;20055;-59
2021/12/22 03:17:22;;;;;;;25.27;19.15;;;-3.90;99.90;;;;;;4970297;28;20138;-59
2021/12/22 03:19:48;;;;;;;26.63;18.58;;;-3.80;99.90;;;;;;4953111;28;20059;-59
2021/12/22 03:22:18;;;;;;;23.02;17.25;;;-3.90;99.90;;;;;;4969369;28;20074;-58
2021/12/22 03:24:47;;;;;;;28.35;17.95;;;-3.90;99.90;;;;;;4969511;28;20070;-59
2021/12/22 03:27:13;;;;;;;26.90;19.10;;;-3.90;99.90;;;;;;4952851;28;20043;-58
2021/12/22 03:29:39;;;;;;;27.48;19.52;;;-3.90;99.90;;;;;;4972136;28;20380;-59
2021/12/22 03:32:07;;;;;;;26.58;18.27;;;-3.90;99.90;;;;;;4937858;28;20114;-59
2021/12/22 03:34:35;;;;;;;26.70;18.13;;;-3.90;99.90;;;;;;4954123;28;20095;-59
2021/12/22 03:37:01;;;;;;;25.80;18.65;;;-3.90;99.90;;;;;;4952514;28;20051;-58
2021/12/22 03:39:28;;;;;;;23.80;18.90;;;-3.90;99.90;;;;;;4983823;28;20457;-58
2021/12/22 03:41:54;;;;;;;26.88;19.38;;;-3.90;99.90;;;;;;4970759;28;20375;-58
2021/12/22 03:44:20;;;;;;;24.83;18.48;;;-3.90;99.90;;;;;;4953278;28;20446;-59
2021/12/22 03:46:47;;;;;;;22.15;17.02;;;-3.90;99.90;;;;;;4953574;28;20105;-59
2021/12/22 03:49:14;;;;;;;29.20;17.73;;;-4.00;99.90;;;;;;4971644;28;20046;-59
2021/12/22 03:51:41;;;;;;;29.40;19.85;;;-4.00;99.90;;;;;;4971454;28;20042;-59
2021/12/22 03:54:12;;;;;;;26.02;19.13;;;-4.00;99.90;;;;;;4969817;28;20055;-58
2021/12/22 03:56:39;;;;;;;28.92;19.13;;;-4.00;99.90;;;;;;4970020;28;20074;-58
2021/12/22 03:59:06;;;;;;;26.23;18.08;;;-4.10;99.90;;;;;;4953321;28;20085;-58
2021/12/22 04:01:33;;;;;;;26.35;18.48;;;-4.00;99.90;;;;;;4969931;28;20050;-58
2021/12/22 04:04:04;;;;;;;24.80;17.52;;;-4.00;99.90;;;;;;4936457;28;20145;-58
2021/12/22 04:06:31;;;;;;;26.25;18.88;;;-4.00;99.90;;;;;;4969824;28;20109;-58
2021/12/22 04:08:57;;;;;;;29.08;18.60;;;-4.10;99.90;;;;;;4969469;28;20054;-58
2021/12/22 04:11:23;;;;;;;28.20;19.58;;;-4.10;99.90;;;;;;4968577;28;20070;-58
2021/12/22 04:13:49;;;;;;;26.73;18.60;;;-4.10;99.90;;;;;;4969089;28;20084;-59
2021/12/22 04:16:15;;;;;;;30.58;20.15;;;-4.10;99.90;;;;;;4970360;28;20569;-57
2021/12/22 04:18:41;;;;;;;30.15;20.13;;;-4.10;99.90;;;;;;4952394;28;20069;-60
2021/12/22 04:21:07;;;;;;;26.77;18.20;;;-4.10;99.90;;;;;;4969011;28;20050;-58
2021/12/22 04:23:36;;;;;;;29.48;19.85;;;-4.10;99.90;;;;;;4968915;28;20053;-57
2021/12/22 04:26:02;;;;;;;26.48;19.20;;;-4.10;99.90;;;;;;4968394;28;20058;-58
2021/12/22 04:28:29;;;;;;;26.95;18.92;;;-4.20;99.90;;;;;;4937311;28;20473;-50
2021/12/22 04:30:55;;;;;;;26.00;18.05;;;-4.10;99.90;;;;;;4969094;28;20059;-51
2021/12/22 04:33:21;;;;;;;26.80;17.98;;;-4.10;99.90;;;;;;4970509;28;20413;-52
2021/12/22 04:35:48;;;;;;;27.25;17.67;;;-4.20;99.90;;;;;;4969042;28;20062;-51
2021/12/22 04:38:15;;;;;;;27.65;19.38;;;-4.20;99.90;;;;;;4969504;28;20047;-52
2021/12/22 04:40:42;;;;;;;30.30;19.98;;;-4.10;99.90;;;;;;4969219;28;20053;-48
2021/12/22 04:43:09;;;;;;;26.10;18.65;;;-4.20;99.90;;;;;;4966637;28;20097;-51
2021/12/22 04:45:36;;;;;;;28.67;20.63;;;-4.10;99.90;;;;;;4968561;28;20050;-49
2021/12/22 04:48:02;;;;;;;28.90;18.67;;;-4.20;99.90;;;;;;4968628;28;20050;-54
2021/12/22 04:50:31;;;;;;;24.67;18.83;;;-4.20;99.90;;;;;;4968575;28;20450;-50
2021/12/22 04:53:21;;;;;;;25.67;18.83;;;-4.20;99.90;;;;;;4968057;28;20042;-49
2021/12/22 04:55:47;;;;;;;24.90;17.42;;;-4.20;99.90;;;;;;4950542;28;20058;-52
2021/12/22 04:58:13;;;;;;;27.17;19.23;;;-4.20;99.90;;;;;;4966612;28;20050;-52
2021/12/22 05:00:40;;;;;;;28.48;18.60;;;-4.20;99.90;;;;;;4968078;28;20138;-49
2021/12/22 05:03:07;;;;;;;31.33;20.60;;;-4.30;99.90;;;;;;4968415;28;20149;-47
2021/12/22 05:05:33;;;;;;;28.10;18.65;;;-4.20;99.90;;;;;;4968221;28;20054;-49
2021/12/22 05:07:59;;;;;;;32.22;20.00;;;-4.30;99.90;;;;;;4951186;28;20584;-49
2021/12/22 05:10:27;;;;;;;28.75;19.88;;;-4.20;99.90;;;;;;4967091;28;20042;-56
2021/12/22 05:12:54;;;;;;;26.75;17.98;;;-4.20;99.90;;;;;;4968628;28;20054;-53
2021/12/22 05:15:22;;;;;;;28.52;19.15;;;-4.20;99.90;;;;;;4966312;28;20057;-54
2021/12/22 05:18:13;;;;;;;33.17;20.17;;;-4.20;99.90;;;;;;4951033;28;20061;-50
2021/12/22 05:20:36;;;;;;;28.38;18.77;;;-4.20;99.90;;;;;;4967441;28;20047;-55
2021/12/22 05:23:02;;;;;;;26.15;19.20;;;-4.30;99.90;;;;;;4952265;28;20046;-56
2021/12/22 05:25:28;;;;;;;29.70;18.08;;;-4.20;99.90;;;;;;4968912;28;20153;-55
2021/12/22 05:27:54;;;;;;;26.13;18.33;;;-4.20;99.90;;;;;;4924687;28;20520;-56
2021/12/22 05:30:20;;;;;;;28.08;19.77;;;-4.20;99.90;;;;;;4969241;28;20050;-57
2021/12/22 05:32:47;;;;;;;29.60;19.75;;;-4.20;99.90;;;;;;4969601;28;20390;-55
2021/12/22 05:35:13;;;;;;;28.35;18.75;;;-4.20;99.90;;;;;;4968389;28;20051;-55
2021/12/22 05:37:39;;;;;;;27.85;18.52;;;-4.20;99.90;;;;;;4951704;28;20046;-55
2021/12/22 05:40:07;;;;;;;28.85;19.83;;;-4.10;99.90;;;;;;4967732;28;20066;-55
2021/12/22 05:42:34;;;;;;;30.02;20.40;;;-4.20;99.90;;;;;;4952142;28;20130;-56
2021/12/22 05:45:00;;;;;;;26.75;17.38;;;-4.20;99.90;;;;;;4951686;28;20325;-55
2021/12/22 05:47:27;;;;;;;27.90;18.73;;;-4.20;99.90;;;;;;4967268;28;20042;-56
2021/12/22 05:49:53;;;;;;;29.48;19.35;;;-4.10;99.90;;;;;;4957343;28;20089;-56
2021/12/22 05:52:19;;;;;;;28.92;18.73;;;-4.10;99.90;;;;;;4950982;28;20054;-55
2021/12/22 05:54:45;;;;;;;26.92;18.30;;;-4.10;99.90;;;;;;4952337;28;20458;-57
2021/12/22 05:57:11;;;;;;;28.15;19.70;;;-4.20;99.90;;;;;;4967442;28;20059;-52
2021/12/22 05:59:37;;;;;;;25.50;18.27;;;-4.20;99.90;;;;;;4968284;28;20051;-55
2021/12/22 06:02:07;;;;;;;27.35;18.65;;;-4.20;99.90;;;;;;4950693;28;20050;-53
2021/12/22 06:04:33;;;;;;;26.77;17.48;;;-4.20;99.90;;;;;;4971721;28;20070;-50
2021/12/22 06:06:59;;;;;;;25.92;18.40;;;-4.20;99.90;;;;;;4968990;28;20041;-56
2021/12/22 06:09:25;;;;;;;29.40;19.83;;;-4.10;99.90;;;;;;4954359;28;20059;-57
2021/12/22 06:11:52;;;;;;;25.67;17.30;;;-4.10;99.90;;;;;;4959480;28;20050;-57
2021/12/22 06:14:18;;;;;;;27.85;19.25;;;-4.10;99.90;;;;;;4971215;28;20065;-56
2021/12/22 06:16:44;;;;;;;28.33;18.02;;;-4.10;99.90;;;;;;4955032;28;20343;-56
2021/12/22 06:19:12;;;;;;;27.35;20.02;;;-4.10;99.90;;;;;;4971229;28;20063;-52
2021/12/22 06:21:39;;;;;;;30.25;18.25;;;-4.10;99.90;;;;;;4955360;28;20078;-49
2021/12/22 06:24:05;;;;;;;26.90;19.73;;;-4.10;99.90;;;;;;4988415;28;20410;-54
2021/12/22 06:26:32;;;;;;;27.23;18.85;;;-4.10;99.90;;;;;;4971666;28;20065;-55
2021/12/22 06:28:58;;;;;;;24.92;17.42;;;-4.10;99.90;;;;;;4972097;28;20501;-53
2021/12/22 06:31:24;;;;;;;26.25;18.63;;;-4.20;99.90;;;;;;4973043;28;20466;-54
2021/12/22 06:33:50;;;;;;;33.47;20.25;;;-4.10;99.90;;;;;;4970983;28;20047;-51
2021/12/22 06:36:17;;;;;;;32.00;20.40;;;-4.20;99.90;;;;;;4971207;28;20135;-53
2021/12/22 06:38:44;;;;;;;29.48;18.67;;;-4.20;99.90;;;;;;4970784;28;20078;-53
2021/12/22 06:41:10;;;;;;;27.65;18.20;;;-4.20;99.90;;;;;;4971169;28;20046;-52
2021/12/22 06:43:36;;;;;;;29.95;19.48;;;-4.20;99.90;;;;;;4987146;28;20054;-52
2021/12/22 06:46:05;;;;;;;28.98;18.63;;;-4.20;99.90;;;;;;4972967;28;20054;-52
2021/12/22 06:48:31;;;;;;;24.90;17.08;;;-4.20;99.90;;;;;;4971006;28;20055;-52
2021/12/22 06:50:57;;;;;;;26.35;17.75;;;-4.10;99.90;;;;;;4968565;28;20050;-54
2021/12/22 06:53:24;;;;;;;31.77;19.10;;;-4.10;99.90;;;;;;4970443;28;20395;-59
2021/12/22 06:55:50;;;;;;;27.83;18.88;;;-4.10;99.90;;;;;;4971449;28;20053;-60
2021/12/22 06:58:16;;;;;;;28.80;20.27;;;-4.10;99.90;;;;;;4955333;28;20394;-60
2021/12/22 07:00:42;;;;;;;24.33;17.75;;;-4.20;99.90;;;;;;4939368;28;20051;-60
2021/12/22 07:03:09;;;;;;;27.20;19.10;;;-4.20;99.90;;;;;;4972625;28;20043;-60
2021/12/22 07:05:35;;;;;;;29.30;18.83;;;-4.20;99.90;;;;;;4972647;28;20543;-59
2021/12/22 07:08:01;;;;;;;29.48;18.55;;;-4.20;99.90;;;;;;4970776;28;20050;-59
2021/12/22 07:10:27;;;;;;;28.60;18.90;;;-4.20;99.90;;;;;;4971771;28;20046;-60
2021/12/22 07:12:53;;;;;;;25.42;18.15;;;-4.20;99.90;;;;;;4969686;28;20101;-60
2021/12/22 07:15:20;;;;;;;28.00;18.95;;;-4.20;99.90;;;;;;4969985;28;20047;-59
2021/12/22 07:17:49;;;;;;;25.88;17.02;;;-4.20;99.90;;;;;;4970857;28;20059;-53
2021/12/22 07:20:16;;;;;;;28.83;18.38;;;-4.20;99.90;;;;;;4972087;28;20133;-50
2021/12/22 07:22:42;;;;;;;27.05;17.27;;;-4.20;99.90;;;;;;4971212;28;20509;-50
2021/12/22 07:25:12;;;;;;;31.60;19.60;;;-4.20;99.90;;;;;;4971542;28;20047;-55
2021/12/22 07:27:38;;;;;;;29.80;19.25;;;-4.10;99.90;;;;;;4971201;28;20046;-49
2021/12/22 07:30:05;;;;;;;31.95;19.60;;;-4.10;99.90;;;;;;4971978;28;20160;-55
2021/12/22 07:32:31;;;;;;;30.50;19.15;;;-4.10;99.90;;;;;;4970545;28;20082;-53
2021/12/22 07:35:17;;;;;;;27.35;18.17;;;-4.10;99.90;;;;;;4972422;28;20082;-51
2021/12/22 07:38:07;;;;;;;27.80;18.33;;;-4.10;99.90;;;;;;4970573;28;20529;-51
2021/12/22 07:40:33;;;;;;;27.52;17.33;;;-4.00;99.90;;;;;;4951460;29;20066;-50
2021/12/22 07:42:59;;;;;;;26.38;17.75;;;-4.00;99.90;;;;;;4935968;29;20415;-54
2021/12/22 07:45:25;;;;;;;28.90;18.25;;;-4.00;99.90;;;;;;4970075;28;20061;-49
2021/12/22 07:47:51;;;;;;;30.85;18.58;;;-4.00;99.90;;;;;;4970557;28;20055;-52
2021/12/22 07:50:18;;;;;;;30.83;19.80;;;-3.90;99.90;;;;;;4971605;28;20087;-52
2021/12/22 07:52:44;;;;;;;28.77;17.73;;;-3.90;99.90;;;;;;4968686;28;20050;-53
2021/12/22 07:55:10;;;;;;;32.67;19.35;;;-3.90;99.90;;;;;;4966333;28;20082;-50
2021/12/22 07:57:37;;;;;;;31.23;18.15;;;-3.90;99.90;;;;;;4950979;29;20130;-52
2021/12/22 08:00:05;;;;;;;30.40;19.27;;;-3.90;99.90;;;;;;4955746;28;20053;-49
2021/12/22 08:02:39;;;;;;;28.60;19.15;;;-3.90;99.90;;;;;;4948685;28;20078;-47
2021/12/22 08:05:06;;;;;;;28.42;18.00;;;-3.90;99.90;;;;;;4968098;28;20168;-53
2021/12/22 08:07:34;;;;;;;29.95;19.55;;;-3.90;99.90;;;;;;4950867;28;20104;-54
2021/12/22 08:10:03;;;;;;;34.45;20.48;;;-3.80;99.90;;;;;;4966611;28;20504;-50
2021/12/22 08:12:29;;;;;;;30.63;18.52;;;-3.70;99.90;;;;;;4982278;28;20162;-52
2021/12/22 08:14:55;;;;;;;28.23;20.08;;;-3.70;99.90;;;;;;4961491;28;20055;-51
2021/12/22 08:17:21;;;;;;;27.13;18.23;;;-3.60;99.90;;;;;;4952122;28;20478;-52
2021/12/22 08:19:48;;;;;;;32.13;20.17;;;-3.60;99.90;;;;;;4959023;28;20418;-55
2021/12/22 08:22:15;;;;;;;26.90;18.20;;;-3.40;99.90;;;;;;4949768;28;20117;-53
2021/12/22 08:24:41;;;;;;;26.00;18.58;;;-3.30;99.90;;;;;;4951235;28;20062;-51
2021/12/22 08:27:11;;;;;;;28.00;19.05;;;-3.20;99.90;;;;;;4951484;28;20041;-50
2021/12/22 08:29:42;;;;;;;25.88;18.40;;;-3.10;99.90;;;;;;4956944;28;20097;-53
2021/12/22 08:32:11;;;;;;;26.90;17.90;;;-3.10;99.90;;;;;;4956796;28;20042;-55
2021/12/22 08:34:40;;;;;;;29.33;18.85;;;-2.90;99.90;;;;;;4957539;28;20050;-48
2021/12/22 08:39:53;;;;;;;26.90;17.60;;;-2.70;99.90;;;;;;4962326;28;20125;-53
2021/12/22 08:42:19;;;;;;;27.77;18.98;;;-2.60;99.90;;;;;;4948092;28;20047;-53
2021/12/22 08:44:46;;;;;;;25.65;18.10;;;-2.40;99.90;;;;;;4965838;28;20116;-53
2021/12/22 08:47:12;;;;;;;28.60;17.92;;;-2.30;99.90;;;;;;4969011;28;20066;-54
2021/12/22 08:49:41;;;;;;;27.20;17.90;;;-2.30;99.90;;;;;;4968268;28;20047;-51
2021/12/22 08:52:08;;;;;;;27.83;18.05;;;-2.20;99.90;;;;;;4936011;28;20109;-51
2021/12/22 08:54:34;;;;;;;26.60;18.23;;;-2.20;99.90;;;;;;4966322;28;20043;-54
2021/12/22 08:57:00;;;;;;;25.77;18.27;;;-2.10;99.90;;;;;;4968015;28;20046;-51
2021/12/22 08:59:27;;;;;;;26.73;17.33;;;-2.10;99.90;;;;;;4967198;28;20043;-52
2021/12/22 09:01:54;;;;;;;23.25;17.20;;;-2.00;99.90;;;;;;4954239;28;20478;-59
2021/12/22 09:04:20;;;;;;;27.45;17.73;;;-1.90;99.90;;;;;;4954534;28;20047;-59
2021/12/22 09:06:48;;;;;;;27.88;17.75;;;-1.90;99.90;;;;;;4935699;28;20078;-59
2021/12/22 09:09:15;;;;;;;22.90;17.40;;;-1.90;99.90;;;;;;4970379;28;20050;-59
2021/12/22 09:11:42;;;;;;;24.23;17.48;;;-1.90;99.90;;;;;;4958307;28;20466;-59
2021/12/22 09:14:10;;;;;;;26.65;18.25;;;-2.00;99.90;;;;;;4966710;28;20054;-59
2021/12/22 09:16:38;;;;;;;27.10;16.60;;;-2.00;99.90;;;;;;4952056;28;20039;-59
2021/12/22 09:19:06;;;;;;;28.88;18.73;;;-2.00;99.90;;;;;;4967169;28;20152;-59
2021/12/22 09:21:33;;;;;;;25.17;16.50;;;-1.90;99.90;;;;;;4967774;28;20194;-61
2021/12/22 09:23:59;;;;;;;26.70;17.58;;;-1.90;99.90;;;;;;4967452;28;20407;-59
2021/12/22 09:26:26;;;;;;;27.80;18.95;;;-1.90;99.90;;;;;;4967498;28;20054;-59
2021/12/22 09:28:54;;;;;;;25.00;15.75;;;-1.90;99.90;;;;;;4938394;28;20051;-56
2021/12/22 09:31:21;;;;;;;25.90;15.70;;;-1.90;99.90;;;;;;4961077;28;20047;-59
2021/12/22 09:33:47;;;;;;;24.98;16.85;;;-1.80;99.90;;;;;;4968645;28;20047;-59
2021/12/22 09:36:15;;;;;;;24.35;17.15;;;-1.80;99.90;;;;;;4981775;28;20057;-59
2021/12/22 09:38:41;;;;;;;23.27;16.10;;;-1.70;99.90;;;;;;4965462;28;20541;-63
2021/12/22 09:41:10;;;;;;;25.75;16.17;;;-1.50;99.90;;;;;;4948647;28;20032;-59
2021/12/22 09:43:37;;;;;;;21.40;16.58;;;-1.40;99.90;;;;;;4964284;28;20049;-59
2021/12/22 09:46:09;;;;;;;21.52;16.00;;;-1.30;99.90;;;;;;4953347;28;20313;-59
2021/12/22 09:53:34;;;;;;;22.35;15.45;;;-1.00;99.90;;;;;;4981733;28;20481;-59
2021/12/22 09:56:01;;;;;;;23.02;15.43;;;-1.00;99.90;;;;;;4963980;28;20039;-59
2021/12/22 09:58:28;;;;;;;23.15;17.48;;;-1.00;99.90;;;;;;4961401;28;20463;-60
2021/12/22 10:00:56;;;;;;;21.55;15.73;;;-0.90;99.90;;;;;;4959931;28;20051;-59
2021/12/22 10:03:23;;;;;;;24.05;16.17;;;-0.80;99.90;;;;;;4948581;28;20050;-60
2021/12/22 10:05:50;;;;;;;21.67;15.95;;;-0.70;99.90;;;;;;4966827;28;20851;-60
2021/12/22 10:08:22;;;;;;;21.00;16.52;;;-0.60;99.90;;;;;;4955011;28;20089;-58
2021/12/22 10:11:10;;;;;;;22.73;16.30;;;-0.60;99.90;;;;;;4965818;28;20049;-59
2021/12/22 10:13:41;;;;;;;21.48;15.07;;;-0.40;99.90;;;;;;4957083;28;20051;-59
2021/12/22 10:16:29;;;;;;;22.65;16.17;;;-0.20;99.90;;;;;;4953995;28;20077;-59
2021/12/22 10:19:07;;;;;;;18.35;14.82;;;0.10;99.90;;;;;;4966329;28;20059;-59
2021/12/22 10:21:50;;;;;;;20.10;14.43;;;0.30;99.90;;;;;;4952876;28;20055;-60
2021/12/22 10:24:16;;;;;;;17.27;13.43;;;0.50;99.90;;;;;;4957107;28;20046;-60
2021/12/22 10:26:43;;;;;;;19.38;14.35;;;0.70;99.90;;;;;;4954015;28;20043;-60
2021/12/22 10:29:09;;;;;;;18.92;14.10;;;1.00;99.90;;;;;;4948771;28;20399;-60
2021/12/22 10:31:47;;;;;;;19.73;14.63;;;1.00;99.90;;;;;;4931604;28;20050;-60
2021/12/22 10:34:16;;;;;;;15.95;13.90;;;1.10;99.90;;;;;;4962806;28;20042;-60
2021/12/22 10:36:48;;;;;;;19.10;13.95;;;1.00;99.90;;;;;;4974886;28;20126;-64
2021/12/22 10:39:29;;;;;;;21.52;15.32;;;0.90;99.90;;;;;;4979836;28;20050;-60
2021/12/22 10:42:07;;;;;;;19.05;14.73;;;0.70;99.90;;;;;;4981509;28;20054;-60
2021/12/22 10:44:36;;;;;;;19.88;13.80;;;0.60;99.90;;;;;;4945151;28;20110;-64
2021/12/22 10:47:20;;;;;;;17.95;13.32;;;0.50;99.90;;;;;;4941279;28;20110;-64
2021/12/22 10:50:00;;;;;;;17.95;13.68;;;0.40;99.90;;;;;;4961731;28;20078;-64
2021/12/22 10:52:27;;;;;;;20.10;13.95;;;0.50;99.90;;;;;;4966007;28;20504;-65
2021/12/22 10:55:13;;;;;;;18.50;14.30;;;0.40;99.90;;;;;;4978198;28;20119;-64
2021/12/22 10:57:47;;;;;;;18.13;12.98;;;0.40;99.90;;;;;;4968337;28;20046;-65
2021/12/22 11:00:19;;;;;;;18.95;13.48;;;0.40;99.90;;;;;;4968050;28;20054;-64
2021/12/22 11:03:02;;;;;;;17.30;12.55;;;0.50;99.90;;;;;;4961254;28;20051;-60
2021/12/22 11:05:29;;;;;;;;;;;0.70;99.90;;;;;;4944513;28;20051;-61
2021/12/22 11:07:57;;;;;;;19.83;14.02;;;1.00;99.90;;;;;;4960831;28;19922;-61
2021/12/22 11:10:25;;;;;;;15.63;12.68;;;1.20;99.90;;;;;;4958884;28;20446;-60
2021/12/22 11:13:03;;;;;;;20.48;13.52;;;1.50;99.90;;;;;;4984815;28;20054;-60
2021/12/22 11:15:30;;;;;;;16.52;13.02;;;1.80;99.90;;;;;;4943895;28;20051;-60
2021/12/22 11:17:56;;;;;;;18.65;12.98;;;1.80;99.90;;;;;;4962338;28;20066;-60
2021/12/22 11:20:24;;;;;;;17.10;12.38;;;1.70;99.90;;;;;;4956560;28;20047;-59
2021/12/22 11:22:54;;;;;;;16.30;11.85;;;1.50;99.90;;;;;;4922693;28;20047;-59
2021/12/22 11:25:21;;;;;;;18.40;12.68;;;1.30;99.90;;;;;;4960454;28;20089;-59
2021/12/22 11:27:49;;;;;;;17.05;12.85;;;1.30;99.90;;;;;;4954954;28;20054;-59
2021/12/22 11:30:15;;;;;;;16.67;12.45;;;1.30;99.90;;;;;;4950266;28;20089;-58
2021/12/22 11:32:41;;;;;;;16.00;13.23;;;1.30;99.90;;;;;;4968252;28;20094;-59
2021/12/22 11:35:10;;;;;;;17.13;12.93;;;1.30;99.90;;;;;;4953685;28;20398;-58
2021/12/22 11:37:37;;;;;;;19.08;13.55;;;1.30;99.90;;;;;;4969315;28;20054;-59
2021/12/22 11:40:08;;;;;;;18.90;12.90;;;1.30;99.90;;;;;;4963481;28;20087;-58
2021/12/22 11:42:38;;;;;;;17.10;12.45;;;1.30;99.90;;;;;;4975803;28;20075;-59
2021/12/22 11:45:05;;;;;;;15.90;12.75;;;1.20;99.90;;;;;;4951946;28;20137;-65
2021/12/22 11:47:44;;;;;;;19.77;12.88;;;1.10;99.90;;;;;;4952676;28;20121;-65
2021/12/22 11:50:18;;;;;;;19.42;13.95;;;1.10;99.90;;;;;;4934122;28;20043;-66
2021/12/22 11:53:00;;;;;;;17.42;13.15;;;1.10;99.90;;;;;;4981147;28;20051;-67
2021/12/22 11:55:50;;;;;;;16.23;13.05;;;1.00;99.90;;;;;;4985890;28;20054;-66
2021/12/22 11:58:27;;;;;;;17.42;12.85;;;1.00;99.90;;;;;;4964794;28;20050;-66
2021/12/22 12:00:53;;;;;;;21.05;13.50;;;1.20;99.90;;;;;;4981503;28;20498;-66
2021/12/22 12:03:44;;;;;;;18.45;13.50;;;1.30;99.90;;;;;;4980287;28;20100;-66
2021/12/22 12:06:25;;;;;;;16.13;12.70;;;1.40;99.90;;;;;;4965985;28;21022;-66
2021/12/22 12:09:09;;;;;;;15.70;12.57;;;1.70;99.90;;;;;;4950870;28;20468;-66
2021/12/22 12:11:38;;;;;;;18.65;12.75;;;2.00;99.90;;;;;;4961839;28;20062;-66
2021/12/22 12:14:11;;;;;;;18.27;13.55;;;2.00;99.90;;;;;;4962079;28;20038;-66
2021/12/22 12:22:35;;;;;;;16.60;12.15;;;2.00;99.90;;;;;;4964044;28;20043;-66
2021/12/22 12:25:07;;;;;;;15.85;12.18;;;2.10;99.90;;;;;;4943581;28;20054;-66
2021/12/22 12:27:33;;;;;;;;;;;2.40;99.90;;;;;;4966807;28;20047;-66
2021/12/22 12:30:10;;;;;;;17.95;12.88;;;2.40;99.90;;;;;;4963429;28;19929;-59
2021/12/22 12:32:42;;;;;;;19.20;12.70;;;2.90;99.90;;;;;;4964397;28;20326;-58
2021/12/22 12:35:28;;;;;;;17.48;12.93;;;3.00;99.90;;;;;;4946617;28;20058;-58
2021/12/22 12:38:15;;;;;;;17.13;12.57;;;2.90;99.90;;;;;;4963652;28;20548;-59
2021/12/22 12:41:06;;;;;;;16.90;12.63;;;2.80;99.90;;;;;;4959226;28;20038;-60
2021/12/22 12:46:24;;;;;;;15.77;12.77;;;2.40;99.90;;;;;;4965857;28;20487;-58
2021/12/22 12:49:08;;;;;;;16.92;12.23;;;2.20;99.90;;;;;;4963321;28;20383;-58
2021/12/22 12:51:39;;;;;;;17.75;13.07;;;2.10;99.90;;;;;;4965333;28;20047;-59
2021/12/22 12:54:07;;;;;;;17.98;12.93;;;1.90;99.90;;;;;;4965284;28;20161;-58
2021/12/22 12:56:35;;;;;;;18.58;12.65;;;1.80;99.90;;;;;;4981211;28;20110;-58
2021/12/22 12:59:07;;;;;;;17.83;12.48;;;1.60;99.90;;;;;;4961821;28;20402;-57
2021/12/22 13:01:50;;;;;;;19.67;13.45;;;1.60;99.90;;;;;;4965336;28;20510;-58
2021/12/22 13:04:26;;;;;;;;;;;1.60;99.90;;;;;;4970180;28;20046;-58
2021/12/22 13:07:00;;;;;;;18.45;13.48;;;1.50;99.90;;;;;;4968165;28;19922;-58
2021/12/22 13:09:39;;;;;;;17.73;12.80;;;1.70;99.90;;;;;;4980409;28;20443;-59